Home

Weather

KSLC Current Conditions

KSLC 042054Z 31006KT 10SM FEW010 FEW090 SCT200 16/M07 A2976 RMK AO2 SLP060 FU FEW010 FU NW T01561072 58025

KSLC Aviation Forecast

TAF AMD KSLC 042133Z 0422/0524 35010KT P6SM SCT200 FM050300 17010KT P6SM SCT100 SCT120 FM051200 17010KT P6SM VCSH BKN060 OVC100 FM051900 31010KT P6SM BKN090


0° C

Currently
Currently
Currently
Currently
Currently
Currently